sensor_id;sensor_type;location;lat;lon;timestamp;temperature;humidity
56538;DHT22;42435;53.292;6.000;2022-12-11T00:00:51;1.50;87.10
56538;DHT22;42435;53.292;6.000;2022-12-11T00:03:17;1.50;87.10
56538;DHT22;42435;53.292;6.000;2022-12-11T00:05:46;1.50;87.10
56538;DHT22;42435;53.292;6.000;2022-12-11T00:08:12;1.60;87.20
56538;DHT22;42435;53.292;6.000;2022-12-11T00:10:38;1.50;87.10
56538;DHT22;42435;53.292;6.000;2022-12-11T00:13:04;1.50;87.10
56538;DHT22;42435;53.292;6.000;2022-12-11T00:15:29;1.50;87.10
56538;DHT22;42435;53.292;6.000;2022-12-11T00:17:55;1.50;87.10
56538;DHT22;42435;53.292;6.000;2022-12-11T00:20:21;1.50;87.20
56538;DHT22;42435;53.292;6.000;2022-12-11T00:22:46;1.50;87.20
56538;DHT22;42435;53.292;6.000;2022-12-11T00:25:13;1.60;87.30
56538;DHT22;42435;53.292;6.000;2022-12-11T00:27:38;1.60;87.20
56538;DHT22;42435;53.292;6.000;2022-12-11T00:30:05;1.60;87.20
56538;DHT22;42435;53.292;6.000;2022-12-11T00:32:30;1.60;87.20
56538;DHT22;42435;53.292;6.000;2022-12-11T00:34:56;1.60;87.30
56538;DHT22;42435;53.292;6.000;2022-12-11T00:37:23;1.60;87.30
56538;DHT22;42435;53.292;6.000;2022-12-11T00:39:49;1.70;87.30
56538;DHT22;42435;53.292;6.000;2022-12-11T00:42:14;1.70;87.30
56538;DHT22;42435;53.292;6.000;2022-12-11T00:44:40;1.80;87.30
56538;DHT22;42435;53.292;6.000;2022-12-11T00:47:05;1.70;87.20
56538;DHT22;42435;53.292;6.000;2022-12-11T00:49:31;1.80;87.30
56538;DHT22;42435;53.292;6.000;2022-12-11T00:51:57;1.80;87.30
56538;DHT22;42435;53.292;6.000;2022-12-11T00:54:23;1.80;87.20
56538;DHT22;42435;53.292;6.000;2022-12-11T00:56:48;1.80;87.20
56538;DHT22;42435;53.292;6.000;2022-12-11T00:59:15;1.80;87.20
56538;DHT22;42435;53.292;6.000;2022-12-11T01:01:41;1.80;87.20
56538;DHT22;42435;53.292;6.000;2022-12-11T01:04:06;1.80;87.20
56538;DHT22;42435;53.292;6.000;2022-12-11T01:06:32;1.80;87.20
56538;DHT22;42435;53.292;6.000;2022-12-11T01:08:57;1.80;87.20
56538;DHT22;42435;53.292;6.000;2022-12-11T01:11:42;1.80;87.20
56538;DHT22;42435;53.292;6.000;2022-12-11T01:14:11;1.90;87.20
56538;DHT22;42435;53.292;6.000;2022-12-11T01:16:37;1.90;87.20
56538;DHT22;42435;53.292;6.000;2022-12-11T01:19:02;1.90;87.20
56538;DHT22;42435;53.292;6.000;2022-12-11T01:21:28;1.90;87.20
56538;DHT22;42435;53.292;6.000;2022-12-11T01:23:54;1.90;87.20
56538;DHT22;42435;53.292;6.000;2022-12-11T01:26:20;1.90;87.20
56538;DHT22;42435;53.292;6.000;2022-12-11T01:28:49;2.00;87.20
56538;DHT22;42435;53.292;6.000;2022-12-11T01:31:15;2.00;87.10
56538;DHT22;42435;53.292;6.000;2022-12-11T01:33:42;2.00;87.10
56538;DHT22;42435;53.292;6.000;2022-12-11T01:36:09;2.00;87.10
56538;DHT22;42435;53.292;6.000;2022-12-11T01:38:35;2.00;87.00
56538;DHT22;42435;53.292;6.000;2022-12-11T01:41:01;2.00;87.00
56538;DHT22;42435;53.292;6.000;2022-12-11T01:43:27;2.00;86.90
56538;DHT22;42435;53.292;6.000;2022-12-11T01:45:54;2.00;87.00
56538;DHT22;42435;53.292;6.000;2022-12-11T01:48:26;2.00;87.00
56538;DHT22;42435;53.292;6.000;2022-12-11T01:50:56;2.00;86.90
56538;DHT22;42435;53.292;6.000;2022-12-11T01:53:32;2.00;86.80
56538;DHT22;42435;53.292;6.000;2022-12-11T01:55:58;2.00;86.80
56538;DHT22;42435;53.292;6.000;2022-12-11T01:58:37;2.00;86.80
56538;DHT22;42435;53.292;6.000;2022-12-11T02:01:04;2.00;86.80
56538;DHT22;42435;53.292;6.000;2022-12-11T02:03:30;2.00;86.80
56538;DHT22;42435;53.292;6.000;2022-12-11T02:06:00;2.00;86.80
56538;DHT22;42435;53.292;6.000;2022-12-11T02:08:26;2.00;86.80
56538;DHT22;42435;53.292;6.000;2022-12-11T02:11:16;2.00;86.80
56538;DHT22;42435;53.292;6.000;2022-12-11T02:14:05;2.10;86.80
56538;DHT22;42435;53.292;6.000;2022-12-11T02:16:41;2.10;86.70
56538;DHT22;42435;53.292;6.000;2022-12-11T02:19:43;2.10;86.70
56538;DHT22;42435;53.292;6.000;2022-12-11T02:22:21;2.10;86.70
56538;DHT22;42435;53.292;6.000;2022-12-11T02:30:28;2.10;86.70
56538;DHT22;42435;53.292;6.000;2022-12-11T02:32:55;2.10;86.70
56538;DHT22;42435;53.292;6.000;2022-12-11T02:35:30;2.10;86.70
56538;DHT22;42435;53.292;6.000;2022-12-11T02:38:21;2.10;86.70
56538;DHT22;42435;53.292;6.000;2022-12-11T02:40:51;2.10;86.70
56538;DHT22;42435;53.292;6.000;2022-12-11T02:43:18;2.20;86.70
56538;DHT22;42435;53.292;6.000;2022-12-11T02:45:45;2.20;86.70
56538;DHT22;42435;53.292;6.000;2022-12-11T02:48:13;2.20;86.70
56538;DHT22;42435;53.292;6.000;2022-12-11T02:50:43;2.20;86.70
56538;DHT22;42435;53.292;6.000;2022-12-11T02:53:11;2.20;86.70
56538;DHT22;42435;53.292;6.000;2022-12-11T02:55:39;2.20;86.70
56538;DHT22;42435;53.292;6.000;2022-12-11T02:58:24;2.20;86.70
56538;DHT22;42435;53.292;6.000;2022-12-11T03:00:51;2.20;86.70
56538;DHT22;42435;53.292;6.000;2022-12-11T03:03:16;2.30;86.70
56538;DHT22;42435;53.292;6.000;2022-12-11T03:05:42;2.20;86.60
56538;DHT22;42435;53.292;6.000;2022-12-11T03:08:11;2.30;86.60
56538;DHT22;42435;53.292;6.000;2022-12-11T03:10:36;2.30;86.60
56538;DHT22;42435;53.292;6.000;2022-12-11T03:13:03;2.30;86.60
56538;DHT22;42435;53.292;6.000;2022-12-11T03:18:57;2.30;86.50
56538;DHT22;42435;53.292;6.000;2022-12-11T03:21:41;2.30;86.40
56538;DHT22;42435;53.292;6.000;2022-12-11T03:24:14;2.40;86.40
56538;DHT22;42435;53.292;6.000;2022-12-11T03:26:49;2.30;86.40
56538;DHT22;42435;53.292;6.000;2022-12-11T03:29:25;2.30;86.40
56538;DHT22;42435;53.292;6.000;2022-12-11T03:32:09;2.30;86.40
56538;DHT22;42435;53.292;6.000;2022-12-11T03:34:45;2.30;86.40
56538;DHT22;42435;53.292;6.000;2022-12-11T03:37:14;2.30;86.40
56538;DHT22;42435;53.292;6.000;2022-12-11T03:39:49;2.30;86.50
56538;DHT22;42435;53.292;6.000;2022-12-11T03:42:16;2.30;86.50
56538;DHT22;42435;53.292;6.000;2022-12-11T03:44:46;2.40;86.40
56538;DHT22;42435;53.292;6.000;2022-12-11T03:47:15;2.30;86.40
56538;DHT22;42435;53.292;6.000;2022-12-11T03:49:42;2.30;86.40
56538;DHT22;42435;53.292;6.000;2022-12-11T03:52:10;2.30;86.40
56538;DHT22;42435;53.292;6.000;2022-12-11T03:54:38;2.40;86.40
56538;DHT22;42435;53.292;6.000;2022-12-11T03:57:05;2.40;86.50
56538;DHT22;42435;53.292;6.000;2022-12-11T03:59:32;2.40;86.50
56538;DHT22;42435;53.292;6.000;2022-12-11T04:01:57;2.40;86.50
56538;DHT22;42435;53.292;6.000;2022-12-11T04:04:23;2.40;86.60
56538;DHT22;42435;53.292;6.000;2022-12-11T04:06:49;2.40;86.50
56538;DHT22;42435;53.292;6.000;2022-12-11T04:09:15;2.40;86.50
56538;DHT22;42435;53.292;6.000;2022-12-11T04:11:40;2.40;86.50
56538;DHT22;42435;53.292;6.000;2022-12-11T04:14:09;2.40;86.50
56538;DHT22;42435;53.292;6.000;2022-12-11T04:16:55;2.50;86.50
56538;DHT22;42435;53.292;6.000;2022-12-11T04:19:21;2.50;86.40
56538;DHT22;42435;53.292;6.000;2022-12-11T04:22:06;2.50;86.40
56538;DHT22;42435;53.292;6.000;2022-12-11T04:24:50;2.50;86.40
56538;DHT22;42435;53.292;6.000;2022-12-11T04:27:17;2.50;86.30
56538;DHT22;42435;53.292;6.000;2022-12-11T04:30:08;2.50;86.30
56538;DHT22;42435;53.292;6.000;2022-12-11T04:32:34;2.50;86.30
56538;DHT22;42435;53.292;6.000;2022-12-11T04:35:00;2.50;86.20
56538;DHT22;42435;53.292;6.000;2022-12-11T04:37:26;2.50;86.20
56538;DHT22;42435;53.292;6.000;2022-12-11T04:39:52;2.50;86.20
56538;DHT22;42435;53.292;6.000;2022-12-11T04:42:18;2.50;86.20
56538;DHT22;42435;53.292;6.000;2022-12-11T04:44:43;2.50;86.20
56538;DHT22;42435;53.292;6.000;2022-12-11T04:47:09;2.60;86.20
56538;DHT22;42435;53.292;6.000;2022-12-11T04:49:35;2.60;86.20
56538;DHT22;42435;53.292;6.000;2022-12-11T04:52:00;2.60;86.10
56538;DHT22;42435;53.292;6.000;2022-12-11T04:54:29;2.60;86.10
56538;DHT22;42435;53.292;6.000;2022-12-11T04:56:55;2.50;86.10
56538;DHT22;42435;53.292;6.000;2022-12-11T04:59:21;2.60;86.00
56538;DHT22;42435;53.292;6.000;2022-12-11T05:01:46;2.60;86.00
56538;DHT22;42435;53.292;6.000;2022-12-11T05:04:12;2.60;86.00
56538;DHT22;42435;53.292;6.000;2022-12-11T05:06:38;2.60;85.90
56538;DHT22;42435;53.292;6.000;2022-12-11T05:09:10;2.60;86.00
56538;DHT22;42435;53.292;6.000;2022-12-11T05:11:36;2.50;86.00
56538;DHT22;42435;53.292;6.000;2022-12-11T05:14:02;2.60;86.00
56538;DHT22;42435;53.292;6.000;2022-12-11T05:16:27;2.60;86.00
56538;DHT22;42435;53.292;6.000;2022-12-11T05:18:53;2.60;86.00
56538;DHT22;42435;53.292;6.000;2022-12-11T05:21:19;2.50;86.00
56538;DHT22;42435;53.292;6.000;2022-12-11T05:23:44;2.60;86.00
56538;DHT22;42435;53.292;6.000;2022-12-11T05:26:13;2.60;86.00
56538;DHT22;42435;53.292;6.000;2022-12-11T05:28:39;2.50;85.90
56538;DHT22;42435;53.292;6.000;2022-12-11T05:31:07;2.50;85.90
56538;DHT22;42435;53.292;6.000;2022-12-11T05:33:34;2.50;85.80
56538;DHT22;42435;53.292;6.000;2022-12-11T05:35:59;2.50;85.80
56538;DHT22;42435;53.292;6.000;2022-12-11T05:38:25;2.50;85.70
56538;DHT22;42435;53.292;6.000;2022-12-11T05:40:56;2.50;85.70
56538;DHT22;42435;53.292;6.000;2022-12-11T05:43:22;2.40;85.80
56538;DHT22;42435;53.292;6.000;2022-12-11T05:45:48;2.50;85.80
56538;DHT22;42435;53.292;6.000;2022-12-11T05:48:13;2.40;85.80
56538;DHT22;42435;53.292;6.000;2022-12-11T05:50:39;2.50;85.90
56538;DHT22;42435;53.292;6.000;2022-12-11T05:53:04;2.50;85.80
56538;DHT22;42435;53.292;6.000;2022-12-11T05:55:33;2.50;85.90
56538;DHT22;42435;53.292;6.000;2022-12-11T05:57:59;2.40;85.90
56538;DHT22;42435;53.292;6.000;2022-12-11T06:00:26;2.40;85.90
56538;DHT22;42435;53.292;6.000;2022-12-11T06:02:52;2.40;85.90
56538;DHT22;42435;53.292;6.000;2022-12-11T06:05:18;2.40;86.00
56538;DHT22;42435;53.292;6.000;2022-12-11T06:07:43;2.50;86.00
56538;DHT22;42435;53.292;6.000;2022-12-11T06:10:09;2.40;85.90
56538;DHT22;42435;53.292;6.000;2022-12-11T06:12:35;2.50;86.00
56538;DHT22;42435;53.292;6.000;2022-12-11T06:15:00;2.50;86.00
56538;DHT22;42435;53.292;6.000;2022-12-11T06:17:26;2.50;86.00
56538;DHT22;42435;53.292;6.000;2022-12-11T06:19:51;2.50;86.10
56538;DHT22;42435;53.292;6.000;2022-12-11T06:22:17;2.50;86.00
56538;DHT22;42435;53.292;6.000;2022-12-11T06:24:43;2.50;85.90
56538;DHT22;42435;53.292;6.000;2022-12-11T06:27:08;2.50;85.90
56538;DHT22;42435;53.292;6.000;2022-12-11T06:29:34;2.50;85.90
56538;DHT22;42435;53.292;6.000;2022-12-11T06:32:00;2.60;85.90
56538;DHT22;42435;53.292;6.000;2022-12-11T06:34:25;2.60;85.90
56538;DHT22;42435;53.292;6.000;2022-12-11T06:36:51;2.60;85.90
56538;DHT22;42435;53.292;6.000;2022-12-11T06:39:16;2.60;85.80
56538;DHT22;42435;53.292;6.000;2022-12-11T06:41:44;2.60;85.80
56538;DHT22;42435;53.292;6.000;2022-12-11T06:44:09;2.60;85.80
56538;DHT22;42435;53.292;6.000;2022-12-11T06:46:35;2.60;85.80
56538;DHT22;42435;53.292;6.000;2022-12-11T06:49:01;2.60;85.70
56538;DHT22;42435;53.292;6.000;2022-12-11T06:51:26;2.60;85.70
56538;DHT22;42435;53.292;6.000;2022-12-11T06:53:54;2.60;85.60
56538;DHT22;42435;53.292;6.000;2022-12-11T06:56:20;2.60;85.60
56538;DHT22;42435;53.292;6.000;2022-12-11T06:58:47;2.60;85.60
56538;DHT22;42435;53.292;6.000;2022-12-11T07:01:24;2.60;85.60
56538;DHT22;42435;53.292;6.000;2022-12-11T07:03:54;2.60;85.60
56538;DHT22;42435;53.292;6.000;2022-12-11T07:06:21;2.60;85.60
56538;DHT22;42435;53.292;6.000;2022-12-11T07:08:46;2.60;85.60
56538;DHT22;42435;53.292;6.000;2022-12-11T07:11:14;2.60;85.60
56538;DHT22;42435;53.292;6.000;2022-12-11T07:13:40;2.60;85.60
56538;DHT22;42435;53.292;6.000;2022-12-11T07:16:07;2.60;85.60
56538;DHT22;42435;53.292;6.000;2022-12-11T07:18:39;2.60;85.70
56538;DHT22;42435;53.292;6.000;2022-12-11T07:21:06;2.60;85.70
56538;DHT22;42435;53.292;6.000;2022-12-11T07:23:33;2.70;85.60
56538;DHT22;42435;53.292;6.000;2022-12-11T07:26:06;2.70;85.50
56538;DHT22;42435;53.292;6.000;2022-12-11T07:28:32;2.70;85.50
56538;DHT22;42435;53.292;6.000;2022-12-11T07:30:58;2.60;85.50
56538;DHT22;42435;53.292;6.000;2022-12-11T07:33:24;2.60;85.50
56538;DHT22;42435;53.292;6.000;2022-12-11T07:35:50;2.60;85.50
56538;DHT22;42435;53.292;6.000;2022-12-11T07:38:15;2.60;85.50
56538;DHT22;42435;53.292;6.000;2022-12-11T07:40:41;2.60;85.60
56538;DHT22;42435;53.292;6.000;2022-12-11T07:43:07;2.60;85.50
56538;DHT22;42435;53.292;6.000;2022-12-11T07:45:32;2.60;85.50
56538;DHT22;42435;53.292;6.000;2022-12-11T07:47:58;2.60;85.50
56538;DHT22;42435;53.292;6.000;2022-12-11T07:50:23;2.60;85.50
56538;DHT22;42435;53.292;6.000;2022-12-11T07:52:49;2.70;85.50
56538;DHT22;42435;53.292;6.000;2022-12-11T07:55:15;2.60;85.50
56538;DHT22;42435;53.292;6.000;2022-12-11T07:57:40;2.70;85.50
56538;DHT22;42435;53.292;6.000;2022-12-11T08:00:06;2.60;85.40
56538;DHT22;42435;53.292;6.000;2022-12-11T08:02:32;2.60;85.40
56538;DHT22;42435;53.292;6.000;2022-12-11T08:04:58;2.60;85.40
56538;DHT22;42435;53.292;6.000;2022-12-11T08:07:23;2.60;85.50
56538;DHT22;42435;53.292;6.000;2022-12-11T08:09:49;2.60;85.40
56538;DHT22;42435;53.292;6.000;2022-12-11T08:12:15;2.60;85.40
56538;DHT22;42435;53.292;6.000;2022-12-11T08:14:40;2.60;85.40
56538;DHT22;42435;53.292;6.000;2022-12-11T08:17:06;2.60;85.40
56538;DHT22;42435;53.292;6.000;2022-12-11T08:19:32;2.60;85.40
56538;DHT22;42435;53.292;6.000;2022-12-11T08:21:57;2.60;85.40
56538;DHT22;42435;53.292;6.000;2022-12-11T08:24:23;2.60;85.40
56538;DHT22;42435;53.292;6.000;2022-12-11T08:26:49;2.70;85.50
56538;DHT22;42435;53.292;6.000;2022-12-11T08:29:14;2.70;85.50
56538;DHT22;42435;53.292;6.000;2022-12-11T08:31:40;2.70;85.50
56538;DHT22;42435;53.292;6.000;2022-12-11T08:34:06;2.70;85.40
56538;DHT22;42435;53.292;6.000;2022-12-11T08:36:32;2.70;85.40
56538;DHT22;42435;53.292;6.000;2022-12-11T08:38:57;2.70;85.40
56538;DHT22;42435;53.292;6.000;2022-12-11T08:41:25;2.70;85.30
56538;DHT22;42435;53.292;6.000;2022-12-11T08:43:52;2.70;85.30
56538;DHT22;42435;53.292;6.000;2022-12-11T08:46:20;2.70;85.40
56538;DHT22;42435;53.292;6.000;2022-12-11T08:48:47;2.70;85.40
56538;DHT22;42435;53.292;6.000;2022-12-11T08:51:15;2.70;85.40
56538;DHT22;42435;53.292;6.000;2022-12-11T08:53:41;2.70;85.40
56538;DHT22;42435;53.292;6.000;2022-12-11T08:56:13;2.70;85.40
56538;DHT22;42435;53.292;6.000;2022-12-11T08:58:40;2.70;85.40
56538;DHT22;42435;53.292;6.000;2022-12-11T09:01:14;2.70;85.40
56538;DHT22;42435;53.292;6.000;2022-12-11T09:03:40;2.80;85.40
56538;DHT22;42435;53.292;6.000;2022-12-11T09:06:11;2.80;85.40
56538;DHT22;42435;53.292;6.000;2022-12-11T09:08:37;2.70;85.40
56538;DHT22;42435;53.292;6.000;2022-12-11T09:11:09;2.80;85.30
56538;DHT22;42435;53.292;6.000;2022-12-11T09:13:36;2.80;85.30
56538;DHT22;42435;53.292;6.000;2022-12-11T09:16:07;2.80;85.30
56538;DHT22;42435;53.292;6.000;2022-12-11T09:18:34;2.80;85.30
56538;DHT22;42435;53.292;6.000;2022-12-11T09:21:09;2.80;85.40
56538;DHT22;42435;53.292;6.000;2022-12-11T09:23:35;2.80;85.40
56538;DHT22;42435;53.292;6.000;2022-12-11T09:26:05;2.80;85.40
56538;DHT22;42435;53.292;6.000;2022-12-11T09:28:31;2.80;85.40
56538;DHT22;42435;53.292;6.000;2022-12-11T09:30:57;2.80;85.40
56538;DHT22;42435;53.292;6.000;2022-12-11T09:33:22;2.80;85.40
56538;DHT22;42435;53.292;6.000;2022-12-11T09:35:58;2.80;85.40
56538;DHT22;42435;53.292;6.000;2022-12-11T09:38:24;2.80;85.40
56538;DHT22;42435;53.292;6.000;2022-12-11T09:40:49;2.80;85.40
56538;DHT22;42435;53.292;6.000;2022-12-11T09:43:37;2.80;85.30
56538;DHT22;42435;53.292;6.000;2022-12-11T09:46:09;2.90;85.40
56538;DHT22;42435;53.292;6.000;2022-12-11T09:48:37;2.90;85.30
56538;DHT22;42435;53.292;6.000;2022-12-11T09:51:38;2.90;85.30
56538;DHT22;42435;53.292;6.000;2022-12-11T09:54:04;2.90;85.30
56538;DHT22;42435;53.292;6.000;2022-12-11T09:56:38;2.90;85.30
56538;DHT22;42435;53.292;6.000;2022-12-11T10:01:50;3.00;85.30
56538;DHT22;42435;53.292;6.000;2022-12-11T10:04:30;3.00;85.30
56538;DHT22;42435;53.292;6.000;2022-12-11T10:07:08;3.00;85.30
56538;DHT22;42435;53.292;6.000;2022-12-11T10:12:54;3.10;85.20
56538;DHT22;42435;53.292;6.000;2022-12-11T10:15:38;3.10;85.30
56538;DHT22;42435;53.292;6.000;2022-12-11T10:18:11;3.10;85.20
56538;DHT22;42435;53.292;6.000;2022-12-11T10:20:38;3.20;85.10
56538;DHT22;42435;53.292;6.000;2022-12-11T10:23:07;3.20;85.10
56538;DHT22;42435;53.292;6.000;2022-12-11T10:25:42;3.20;85.10
56538;DHT22;42435;53.292;6.000;2022-12-11T10:28:14;3.20;85.10
56538;DHT22;42435;53.292;6.000;2022-12-11T10:33:40;3.30;85.00
56538;DHT22;42435;53.292;6.000;2022-12-11T10:36:12;3.30;85.00
56538;DHT22;42435;53.292;6.000;2022-12-11T10:38:45;3.30;84.90
56538;DHT22;42435;53.292;6.000;2022-12-11T10:41:17;3.30;84.80
56538;DHT22;42435;53.292;6.000;2022-12-11T10:43:48;3.40;84.80
56538;DHT22;42435;53.292;6.000;2022-12-11T10:46:24;3.40;84.80
56538;DHT22;42435;53.292;6.000;2022-12-11T10:48:55;3.40;84.70
56538;DHT22;42435;53.292;6.000;2022-12-11T10:51:24;3.40;84.70
56538;DHT22;42435;53.292;6.000;2022-12-11T10:56:31;3.50;84.60
56538;DHT22;42435;53.292;6.000;2022-12-11T10:58:59;3.50;84.60
56538;DHT22;42435;53.292;6.000;2022-12-11T11:01:30;3.50;84.60
56538;DHT22;42435;53.292;6.000;2022-12-11T11:04:14;3.60;84.60
56538;DHT22;42435;53.292;6.000;2022-12-11T11:06:40;3.70;84.50
56538;DHT22;42435;53.292;6.000;2022-12-11T11:09:30;3.70;84.50
56538;DHT22;42435;53.292;6.000;2022-12-11T11:11:56;3.80;84.30
56538;DHT22;42435;53.292;6.000;2022-12-11T11:14:22;3.90;84.30
56538;DHT22;42435;53.292;6.000;2022-12-11T11:16:50;3.90;84.20
56538;DHT22;42435;53.292;6.000;2022-12-11T11:19:23;3.90;84.10
56538;DHT22;42435;53.292;6.000;2022-12-11T11:21:51;3.90;83.90
56538;DHT22;42435;53.292;6.000;2022-12-11T11:24:28;4.00;83.80
56538;DHT22;42435;53.292;6.000;2022-12-11T11:26:54;4.00;83.70
56538;DHT22;42435;53.292;6.000;2022-12-11T11:29:31;4.10;83.70
56538;DHT22;42435;53.292;6.000;2022-12-11T11:32:13;4.10;83.30
56538;DHT22;42435;53.292;6.000;2022-12-11T11:34:40;4.10;83.10
56538;DHT22;42435;53.292;6.000;2022-12-11T11:37:23;4.10;83.20
56538;DHT22;42435;53.292;6.000;2022-12-11T11:39:56;4.10;83.00
56538;DHT22;42435;53.292;6.000;2022-12-11T11:42:57;4.10;82.90
56538;DHT22;42435;53.292;6.000;2022-12-11T11:45:42;4.10;82.80
56538;DHT22;42435;53.292;6.000;2022-12-11T11:48:29;4.10;82.80
56538;DHT22;42435;53.292;6.000;2022-12-11T11:50:56;4.00;82.60
56538;DHT22;42435;53.292;6.000;2022-12-11T11:53:33;4.00;82.60
56538;DHT22;42435;53.292;6.000;2022-12-11T11:58:48;4.00;82.50
56538;DHT22;42435;53.292;6.000;2022-12-11T12:01:19;4.00;82.50
56538;DHT22;42435;53.292;6.000;2022-12-11T12:03:46;4.00;82.50
56538;DHT22;42435;53.292;6.000;2022-12-11T12:06:19;4.00;82.50
56538;DHT22;42435;53.292;6.000;2022-12-11T12:11:39;4.00;82.40
56538;DHT22;42435;53.292;6.000;2022-12-11T12:28:35;4.00;82.30
56538;DHT22;42435;53.292;6.000;2022-12-11T12:39:10;4.00;82.40
56538;DHT22;42435;53.292;6.000;2022-12-11T12:42:06;4.00;82.30
56538;DHT22;42435;53.292;6.000;2022-12-11T12:47:14;4.00;82.30
56538;DHT22;42435;53.292;6.000;2022-12-11T12:49:46;4.00;82.30
56538;DHT22;42435;53.292;6.000;2022-12-11T12:52:36;4.00;82.30
56538;DHT22;42435;53.292;6.000;2022-12-11T12:58:05;4.00;82.30
56538;DHT22;42435;53.292;6.000;2022-12-11T13:00:32;4.00;82.20
56538;DHT22;42435;53.292;6.000;2022-12-11T13:03:11;4.00;82.20
56538;DHT22;42435;53.292;6.000;2022-12-11T13:05:40;4.00;82.20
56538;DHT22;42435;53.292;6.000;2022-12-11T13:08:07;4.00;82.10
56538;DHT22;42435;53.292;6.000;2022-12-11T13:10:35;4.00;82.00
56538;DHT22;42435;53.292;6.000;2022-12-11T13:13:03;4.00;81.90
56538;DHT22;42435;53.292;6.000;2022-12-11T13:15:33;3.90;81.90
56538;DHT22;42435;53.292;6.000;2022-12-11T13:18:02;3.90;81.90
56538;DHT22;42435;53.292;6.000;2022-12-11T13:20:33;3.90;81.90
56538;DHT22;42435;53.292;6.000;2022-12-11T13:25:32;3.90;82.00
56538;DHT22;42435;53.292;6.000;2022-12-11T13:31:06;3.90;82.00
56538;DHT22;42435;53.292;6.000;2022-12-11T13:33:53;3.90;82.10
56538;DHT22;42435;53.292;6.000;2022-12-11T13:36:26;3.90;82.10
56538;DHT22;42435;53.292;6.000;2022-12-11T13:39:00;3.90;82.00
56538;DHT22;42435;53.292;6.000;2022-12-11T13:41:27;3.90;82.00
56538;DHT22;42435;53.292;6.000;2022-12-11T13:43:53;3.90;81.90
56538;DHT22;42435;53.292;6.000;2022-12-11T13:46:29;3.90;82.00
56538;DHT22;42435;53.292;6.000;2022-12-11T13:48:58;3.90;82.00
56538;DHT22;42435;53.292;6.000;2022-12-11T13:51:26;3.90;81.90
56538;DHT22;42435;53.292;6.000;2022-12-11T13:54:26;3.90;81.90
56538;DHT22;42435;53.292;6.000;2022-12-11T13:57:02;3.90;81.80
56538;DHT22;42435;53.292;6.000;2022-12-11T13:59:34;3.80;81.80
56538;DHT22;42435;53.292;6.000;2022-12-11T14:04:38;3.80;81.70
56538;DHT22;42435;53.292;6.000;2022-12-11T14:07:09;3.80;81.80
56538;DHT22;42435;53.292;6.000;2022-12-11T14:09:39;3.80;81.80
56538;DHT22;42435;53.292;6.000;2022-12-11T14:12:15;3.80;81.70
56538;DHT22;42435;53.292;6.000;2022-12-11T14:14:43;3.80;81.70
56538;DHT22;42435;53.292;6.000;2022-12-11T14:17:13;3.70;81.80
56538;DHT22;42435;53.292;6.000;2022-12-11T14:19:47;3.70;81.70
56538;DHT22;42435;53.292;6.000;2022-12-11T14:22:29;3.70;81.80
56538;DHT22;42435;53.292;6.000;2022-12-11T14:24:57;3.70;81.80
56538;DHT22;42435;53.292;6.000;2022-12-11T14:27:24;3.70;81.80
56538;DHT22;42435;53.292;6.000;2022-12-11T14:29:50;3.60;81.80
56538;DHT22;42435;53.292;6.000;2022-12-11T14:32:33;3.60;81.80
56538;DHT22;42435;53.292;6.000;2022-12-11T14:35:02;3.60;81.70
56538;DHT22;42435;53.292;6.000;2022-12-11T14:37:29;3.50;81.70
56538;DHT22;42435;53.292;6.000;2022-12-11T14:40:16;3.60;81.80
56538;DHT22;42435;53.292;6.000;2022-12-11T14:42:54;3.50;81.80
56538;DHT22;42435;53.292;6.000;2022-12-11T14:45:33;3.50;81.80
56538;DHT22;42435;53.292;6.000;2022-12-11T14:48:02;3.50;81.80
56538;DHT22;42435;53.292;6.000;2022-12-11T14:50:43;3.40;81.70
56538;DHT22;42435;53.292;6.000;2022-12-11T14:53:19;3.40;81.70
56538;DHT22;42435;53.292;6.000;2022-12-11T14:55:47;3.40;81.70
56538;DHT22;42435;53.292;6.000;2022-12-11T15:00:42;3.30;81.70
56538;DHT22;42435;53.292;6.000;2022-12-11T15:05:48;3.30;81.70
56538;DHT22;42435;53.292;6.000;2022-12-11T15:08:18;3.20;81.70
56538;DHT22;42435;53.292;6.000;2022-12-11T15:13:26;3.20;81.80
56538;DHT22;42435;53.292;6.000;2022-12-11T15:15:53;3.10;81.80
56538;DHT22;42435;53.292;6.000;2022-12-11T15:18:29;3.10;81.80
56538;DHT22;42435;53.292;6.000;2022-12-11T15:20:59;3.10;81.80
56538;DHT22;42435;53.292;6.000;2022-12-11T15:23:26;3.10;81.90
56538;DHT22;42435;53.292;6.000;2022-12-11T15:25:54;3.20;81.80
56538;DHT22;42435;53.292;6.000;2022-12-11T15:28:28;3.10;81.80
56538;DHT22;42435;53.292;6.000;2022-12-11T15:30:56;3.10;81.80
56538;DHT22;42435;53.292;6.000;2022-12-11T15:33:22;3.10;81.80
56538;DHT22;42435;53.292;6.000;2022-12-11T15:35:56;3.10;81.80
56538;DHT22;42435;53.292;6.000;2022-12-11T15:40:54;3.10;81.70
56538;DHT22;42435;53.292;6.000;2022-12-11T15:43:20;3.00;81.70
56538;DHT22;42435;53.292;6.000;2022-12-11T15:45:45;3.00;81.60
56538;DHT22;42435;53.292;6.000;2022-12-11T15:48:11;3.00;81.50
56538;DHT22;42435;53.292;6.000;2022-12-11T15:50:37;3.00;81.50
56538;DHT22;42435;53.292;6.000;2022-12-11T15:53:02;3.00;81.50
56538;DHT22;42435;53.292;6.000;2022-12-11T15:55:28;2.90;81.40
56538;DHT22;42435;53.292;6.000;2022-12-11T15:58:04;2.90;81.40
56538;DHT22;42435;53.292;6.000;2022-12-11T16:00:31;2.90;81.20
56538;DHT22;42435;53.292;6.000;2022-12-11T16:02:57;2.90;81.20
56538;DHT22;42435;53.292;6.000;2022-12-11T16:05:23;2.90;81.10
56538;DHT22;42435;53.292;6.000;2022-12-11T16:07:49;2.80;81.10
56538;DHT22;42435;53.292;6.000;2022-12-11T16:10:24;2.80;81.10
56538;DHT22;42435;53.292;6.000;2022-12-11T16:12:50;2.80;81.10
56538;DHT22;42435;53.292;6.000;2022-12-11T16:15:16;2.80;81.10
56538;DHT22;42435;53.292;6.000;2022-12-11T16:17:43;2.80;81.10
56538;DHT22;42435;53.292;6.000;2022-12-11T16:20:09;2.70;81.00
56538;DHT22;42435;53.292;6.000;2022-12-11T16:22:36;2.70;81.10
56538;DHT22;42435;53.292;6.000;2022-12-11T16:25:01;2.70;81.10
56538;DHT22;42435;53.292;6.000;2022-12-11T16:27:27;2.70;81.10
56538;DHT22;42435;53.292;6.000;2022-12-11T16:29:53;2.70;81.00
56538;DHT22;42435;53.292;6.000;2022-12-11T16:32:18;2.70;80.90
56538;DHT22;42435;53.292;6.000;2022-12-11T16:34:44;2.60;81.00
56538;DHT22;42435;53.292;6.000;2022-12-11T16:37:10;2.60;81.00
56538;DHT22;42435;53.292;6.000;2022-12-11T16:39:36;2.60;81.00
56538;DHT22;42435;53.292;6.000;2022-12-11T16:42:05;2.50;81.10
56538;DHT22;42435;53.292;6.000;2022-12-11T16:44:31;2.50;81.10
56538;DHT22;42435;53.292;6.000;2022-12-11T16:46:57;2.50;81.20
56538;DHT22;42435;53.292;6.000;2022-12-11T16:49:23;2.50;81.20
56538;DHT22;42435;53.292;6.000;2022-12-11T16:51:49;2.50;81.20
56538;DHT22;42435;53.292;6.000;2022-12-11T16:54:14;2.50;81.20
56538;DHT22;42435;53.292;6.000;2022-12-11T16:56:40;2.50;81.10
56538;DHT22;42435;53.292;6.000;2022-12-11T16:59:09;2.50;81.10
56538;DHT22;42435;53.292;6.000;2022-12-11T17:01:35;2.50;81.00
56538;DHT22;42435;53.292;6.000;2022-12-11T17:04:00;2.50;80.90
56538;DHT22;42435;53.292;6.000;2022-12-11T17:06:26;2.40;80.90
56538;DHT22;42435;53.292;6.000;2022-12-11T17:08:52;2.40;81.00
56538;DHT22;42435;53.292;6.000;2022-12-11T17:11:20;2.40;81.00